createdAt,value
2019-04-27T00:02:13.817Z,93.12
2019-04-27T00:05:14.993Z,93.06
2019-04-27T00:07:56.241Z,92.92
2019-04-27T00:10:30.232Z,92.84
2019-04-27T00:13:02.129Z,92.83
2019-04-27T00:15:43.936Z,93.04
2019-04-27T00:18:23.960Z,93.44
2019-04-27T00:21:04.658Z,93.42
2019-04-27T00:23:35.077Z,93.21
2019-04-27T00:26:05.097Z,93.28
2019-04-27T00:28:34.954Z,93.19
2019-04-27T00:31:05.132Z,92.82
2019-04-27T00:33:35.706Z,92.76
2019-04-27T00:36:13.195Z,92.15
2019-04-27T00:38:50.006Z,91.93
2019-04-27T00:41:39.110Z,91.23
2019-04-27T00:44:08.973Z,91.26
2019-04-27T00:46:38.862Z,90.92
2019-04-27T00:49:08.690Z,90.84
2019-04-27T00:51:38.878Z,91.11
2019-04-27T00:54:09.100Z,90.71
2019-04-27T00:56:48.095Z,90.34
2019-04-27T00:59:55.413Z,90.01
2019-04-27T01:02:35.399Z,89.85
2019-04-27T01:05:08.666Z,89.69
2019-04-27T01:07:38.535Z,89.65
2019-04-27T01:10:09.385Z,89.73
2019-04-27T01:12:39.497Z,90.42
2019-04-27T01:15:09.395Z,89.92
2019-04-27T01:17:39.276Z,89.90
2019-04-27T01:20:09.289Z,89.97
2019-04-27T01:22:39.285Z,89.61
2019-04-27T01:25:09.417Z,88.92
2019-04-27T01:27:56.451Z,88.98
2019-04-27T01:30:51.954Z,88.69
2019-04-27T01:33:21.838Z,88.37
2019-04-27T01:35:51.678Z,88.80
2019-04-27T01:38:21.616Z,88.94
2019-04-27T01:40:51.455Z,88.92
2019-04-27T01:43:21.319Z,88.74
2019-04-27T01:45:51.279Z,88.82
2019-04-27T01:48:25.573Z,89.00
2019-04-27T01:50:53.437Z,89.37
2019-04-27T01:53:23.620Z,89.36
2019-04-27T01:55:53.506Z,89.21
2019-04-27T01:58:23.359Z,89.98
2019-04-27T02:01:19.437Z,90.21
2019-04-27T02:03:59.922Z,90.30
2019-04-27T02:06:30.070Z,90.78
2019-04-27T02:09:00.001Z,91.13
2019-04-27T02:11:29.900Z,90.90
2019-04-27T02:13:59.770Z,91.54
2019-04-27T02:16:30.644Z,91.46
2019-04-27T02:19:00.606Z,91.40
2019-04-27T02:21:30.460Z,91.22
2019-04-27T02:24:00.304Z,91.35
2019-04-27T02:26:30.807Z,91.14
2019-04-27T02:29:31.973Z,90.78
2019-04-27T02:32:20.924Z,90.56
2019-04-27T02:34:54.770Z,90.73
2019-04-27T02:37:24.621Z,90.61
2019-04-27T02:39:54.528Z,90.79
2019-04-27T02:42:26.035Z,90.87
2019-04-27T02:44:55.928Z,90.44
2019-04-27T02:47:26.027Z,90.36
2019-04-27T02:49:55.910Z,90.38
2019-04-27T02:52:49.973Z,90.70
2019-04-27T02:55:19.926Z,90.43
2019-04-27T02:57:50.584Z,91.00
2019-04-27T03:00:20.759Z,90.98
2019-04-27T03:02:55.547Z,91.25
2019-04-27T03:05:29.313Z,91.32
2019-04-27T03:07:59.636Z,91.28
2019-04-27T03:10:32.104Z,91.44
2019-04-27T03:13:11.127Z,91.55
2019-04-27T03:15:49.721Z,91.48
2019-04-27T03:18:40.307Z,91.56
2019-04-27T03:21:13.430Z,91.54
2019-04-27T03:23:43.473Z,91.29
2019-04-27T03:26:44.373Z,91.35
2019-04-27T03:29:14.892Z,91.49
2019-04-27T03:31:47.342Z,91.80
2019-04-27T03:34:17.728Z,91.83
2019-04-27T03:36:49.323Z,91.92
2019-04-27T03:39:20.171Z,91.71
2019-04-27T03:41:52.866Z,91.98
2019-04-27T03:44:22.064Z,91.95
2019-04-27T03:46:52.256Z,92.02
2019-04-27T03:49:34.715Z,91.84
2019-04-27T03:52:09.644Z,91.40
2019-04-27T03:54:43.959Z,91.28
2019-04-27T03:57:23.302Z,91.46
2019-04-27T04:00:01.642Z,91.30
2019-04-27T04:02:31.730Z,91.48
2019-04-27T04:05:01.766Z,91.21
2019-04-27T04:07:31.699Z,90.96
2019-04-27T04:10:01.590Z,90.59
2019-04-27T04:12:41.832Z,90.46
2019-04-27T04:15:16.781Z,90.34
2019-04-27T04:17:49.506Z,90.11
2019-04-27T04:20:20.220Z,90.08
2019-04-27T04:22:51.385Z,89.99
2019-04-27T04:25:21.854Z,89.69
2019-04-27T04:27:51.735Z,89.57
2019-04-27T04:30:21.641Z,89.44
2019-04-27T04:32:52.012Z,88.92
2019-04-27T04:35:25.070Z,88.69
2019-04-27T04:37:55.298Z,88.37
2019-04-27T04:40:32.308Z,88.05
2019-04-27T04:43:10.545Z,87.57
2019-04-27T04:45:49.766Z,87.42
2019-04-27T04:48:20.094Z,87.16
2019-04-27T04:50:50.289Z,87.41
2019-04-27T04:53:20.896Z,87.09
2019-04-27T04:55:50.984Z,87.46
2019-04-27T04:58:21.247Z,87.35
2019-04-27T05:00:51.232Z,87.36
2019-04-27T05:03:21.830Z,86.81
2019-04-27T05:05:51.955Z,87.07
2019-04-27T05:08:21.785Z,86.99
2019-04-27T05:10:51.650Z,86.55
2019-04-27T05:13:21.554Z,86.93
2019-04-27T05:15:51.426Z,87.24
2019-04-27T05:18:21.299Z,86.82
2019-04-27T05:21:13.875Z,86.96
2019-04-27T05:23:44.243Z,87.22
2019-04-27T05:26:14.482Z,87.31
2019-04-27T05:28:45.006Z,87.53
2019-04-27T05:31:14.935Z,87.40
2019-04-27T05:33:45.104Z,86.75
2019-04-27T05:36:17.187Z,86.65
2019-04-27T05:39:07.368Z,85.69
2019-04-27T05:41:39.313Z,84.54
2019-04-27T05:44:25.452Z,82.17
2019-04-27T05:47:05.421Z,80.28
2019-04-27T05:49:41.101Z,79.25
2019-04-27T05:52:33.271Z,79.43
2019-04-27T05:55:03.501Z,79.79
2019-04-27T05:57:33.381Z,81.22
2019-04-27T06:00:04.296Z,79.59
2019-04-27T06:02:34.135Z,76.44
2019-04-27T06:05:04.251Z,72.42
2019-04-27T06:07:34.234Z,71.89
2019-04-27T06:10:04.682Z,70.75
2019-04-27T06:12:34.619Z,71.93
2019-04-27T06:15:05.032Z,73.39
2019-04-27T06:17:34.911Z,74.15
2019-04-27T06:20:09.833Z,74.64
2019-04-27T06:22:39.721Z,73.46
2019-04-27T06:25:11.856Z,68.88
2019-04-27T06:27:42.208Z,66.89
2019-04-27T06:30:12.569Z,51.17
2019-04-27T06:32:42.689Z,41.66
2019-04-27T06:35:13.469Z,45.01
2019-04-27T06:37:43.714Z,52.59
2019-04-27T06:40:13.657Z,56.75
2019-04-27T06:42:43.516Z,57.40
2019-04-27T06:45:13.837Z,58.84
2019-04-27T06:47:43.751Z,59.24
2019-04-27T06:50:13.744Z,59.57
2019-04-27T06:52:43.969Z,59.95
2019-04-27T06:55:14.265Z,58.56
2019-04-27T06:57:44.179Z,58.72
2019-04-27T07:00:14.358Z,58.29
2019-04-27T07:02:44.304Z,57.99
2019-04-27T07:05:14.917Z,58.16
2019-04-27T07:07:44.795Z,56.86
2019-04-27T07:10:15.095Z,56.30
2019-04-27T07:12:44.981Z,56.67
2019-04-27T07:15:15.585Z,55.83
2019-04-27T07:17:45.626Z,55.98
2019-04-27T07:20:15.690Z,55.53
2019-04-27T07:22:45.572Z,55.92
2019-04-27T07:25:15.503Z,56.37
2019-04-27T07:27:45.805Z,55.97
2019-04-27T07:30:16.048Z,55.60
2019-04-27T07:32:45.922Z,54.06
2019-04-27T07:35:15.783Z,52.88
2019-04-27T07:37:45.682Z,52.22
2019-04-27T07:40:16.135Z,52.30
2019-04-27T07:42:49.623Z,51.17
2019-04-27T07:45:25.641Z,52.52
2019-04-27T07:47:55.514Z,51.55
2019-04-27T07:50:25.392Z,51.38
2019-04-27T07:52:55.836Z,49.94
2019-04-27T07:55:26.102Z,50.05
2019-04-27T07:57:56.008Z,49.99
2019-04-27T08:00:25.937Z,49.97
2019-04-27T08:02:55.828Z,49.60
2019-04-27T08:05:26.331Z,48.54
2019-04-27T08:07:56.178Z,47.40
2019-04-27T08:10:26.119Z,46.50
2019-04-27T08:12:56.301Z,45.94
2019-04-27T08:15:26.607Z,47.26
2019-04-27T08:17:56.509Z,45.84
2019-04-27T08:20:26.700Z,46.04
2019-04-27T08:22:56.564Z,44.91
2019-04-27T08:25:26.693Z,44.49
2019-04-27T08:28:05.339Z,43.22
2019-04-27T08:30:44.739Z,42.66
2019-04-27T08:33:15.097Z,41.80
2019-04-27T08:35:45.405Z,43.54
2019-04-27T08:38:15.391Z,40.94
2019-04-27T08:40:45.647Z,40.45
2019-04-27T08:43:15.550Z,40.54
2019-04-27T08:45:45.400Z,41.93
2019-04-27T08:48:15.835Z,42.13
2019-04-27T08:50:45.702Z,41.48
2019-04-27T08:53:15.993Z,41.05
2019-04-27T08:55:49.654Z,40.09
2019-04-27T08:58:19.687Z,38.94
2019-04-27T09:00:50.873Z,39.61
2019-04-27T09:03:20.742Z,37.10
2019-04-27T09:05:51.157Z,38.89
2019-04-27T09:08:30.821Z,39.04
2019-04-27T09:11:20.554Z,38.97
2019-04-27T09:13:59.510Z,38.85
2019-04-27T09:16:41.432Z,35.84
2019-04-27T09:19:20.386Z,33.08
2019-04-27T09:22:12.296Z,30.17
2019-04-27T09:24:35.555Z,30.19
2019-04-27T09:27:06.671Z,31.30
2019-04-27T09:29:39.520Z,31.24
2019-04-27T09:32:09.685Z,30.08
2019-04-27T09:34:39.543Z,30.08
2019-04-27T09:37:09.754Z,31.98
2019-04-27T09:39:39.593Z,32.71
2019-04-27T09:42:09.433Z,34.08
2019-04-27T09:44:39.287Z,33.07
2019-04-27T09:47:09.534Z,32.26
2019-04-27T09:49:39.367Z,33.28
2019-04-27T09:52:09.223Z,32.50
2019-04-27T09:54:39.112Z,32.12
2019-04-27T09:57:08.996Z,31.20
2019-04-27T09:59:39.794Z,30.69
2019-04-27T10:02:09.901Z,31.91
2019-04-27T10:04:39.839Z,31.88
2019-04-27T10:07:09.873Z,31.57
2019-04-27T10:09:40.313Z,32.75
2019-04-27T10:12:10.188Z,34.22
2019-04-27T10:14:40.358Z,34.67
2019-04-27T10:17:10.253Z,33.75
2019-04-27T10:19:40.132Z,33.92
2019-04-27T10:22:10.414Z,33.48
2019-04-27T10:24:40.321Z,32.54
2019-04-27T10:27:10.560Z,33.70
2019-04-27T10:29:40.741Z,34.76
2019-04-27T10:32:10.691Z,34.66
2019-04-27T10:34:40.584Z,33.99
2019-04-27T10:37:10.460Z,33.79
2019-04-27T10:39:40.328Z,33.45
2019-04-27T10:42:10.166Z,33.20
2019-04-27T10:44:40.001Z,33.13
2019-04-27T10:47:10.428Z,33.49
2019-04-27T10:49:40.975Z,33.45
2019-04-27T10:52:10.825Z,34.63
2019-04-27T10:54:40.720Z,34.12
2019-04-27T10:57:10.605Z,34.70
2019-04-27T10:59:40.432Z,34.63
2019-04-27T11:02:10.399Z,35.92
2019-04-27T11:05:01.405Z,35.40
2019-04-27T11:07:36.203Z,35.29
2019-04-27T11:10:07.880Z,33.57
2019-04-27T11:12:37.845Z,32.63
2019-04-27T11:15:09.446Z,32.00
2019-04-27T11:17:39.355Z,31.62
2019-04-27T11:20:10.147Z,31.58
2019-04-27T11:22:40.003Z,32.02
2019-04-27T11:25:10.326Z,31.86
2019-04-27T11:27:40.152Z,30.10
2019-04-27T11:30:29.290Z,30.19
2019-04-27T11:32:59.426Z,30.01
2019-04-27T11:35:40.332Z,30.72
2019-04-27T11:38:10.497Z,29.78
2019-04-27T11:40:40.413Z,30.28
2019-04-27T11:43:10.279Z,30.95
2019-04-27T11:45:59.410Z,29.77
2019-04-27T11:48:29.901Z,30.74
2019-04-27T11:51:00.081Z,30.92
2019-04-27T11:53:30.245Z,29.42
2019-04-27T11:56:00.433Z,29.60
2019-04-27T11:58:30.460Z,29.85
2019-04-27T12:01:00.384Z,29.94
2019-04-27T12:03:30.236Z,30.86
2019-04-27T12:06:00.417Z,32.61
2019-04-27T12:08:30.624Z,32.04
2019-04-27T12:11:00.573Z,32.45
2019-04-27T12:13:31.014Z,32.73
2019-04-27T12:16:01.237Z,33.13
2019-04-27T12:18:31.572Z,34.04
2019-04-27T12:21:02.089Z,34.37
2019-04-27T12:23:35.963Z,34.00
2019-04-27T12:26:05.710Z,35.44
2019-04-27T12:28:41.933Z,35.65
2019-04-27T12:31:16.710Z,35.17
2019-04-27T12:33:46.863Z,34.91
2019-04-27T12:36:16.785Z,35.15
2019-04-27T12:38:47.017Z,35.08
2019-04-27T12:41:17.130Z,34.82
2019-04-27T12:43:47.008Z,34.58
2019-04-27T12:46:17.217Z,35.60
2019-04-27T12:48:47.091Z,36.18
2019-04-27T12:51:17.404Z,35.46
2019-04-27T12:53:56.748Z,36.49
2019-04-27T12:56:39.161Z,37.32
2019-04-27T12:59:36.952Z,37.38
2019-04-27T13:02:07.518Z,37.87
2019-04-27T13:04:38.399Z,37.15
2019-04-27T13:07:08.519Z,38.03
2019-04-27T13:09:38.698Z,37.94
2019-04-27T13:12:08.883Z,38.78
2019-04-27T13:14:39.003Z,38.89
2019-04-27T13:17:09.166Z,39.52
2019-04-27T13:19:39.042Z,39.41
2019-04-27T13:22:09.285Z,39.97
2019-04-27T13:24:39.183Z,40.36
2019-04-27T13:27:09.417Z,39.61
2019-04-27T13:29:39.602Z,39.75
2019-04-27T13:32:09.808Z,41.59
2019-04-27T13:34:39.693Z,41.29
2019-04-27T13:37:27.297Z,41.28
2019-04-27T13:40:04.738Z,41.93
2019-04-27T13:42:31.035Z,41.46
2019-04-27T13:45:02.892Z,40.92
2019-04-27T13:47:44.040Z,39.47
2019-04-27T13:50:22.884Z,38.73
2019-04-27T13:53:08.416Z,38.76
2019-04-27T13:55:38.763Z,38.64
2019-04-27T13:58:09.012Z,40.08
2019-04-27T14:00:39.237Z,39.22
2019-04-27T14:03:09.470Z,40.16
2019-04-27T14:05:39.415Z,40.86
2019-04-27T14:08:09.293Z,38.80
2019-04-27T14:10:39.698Z,39.06
2019-04-27T14:13:11.114Z,39.74
2019-04-27T14:15:41.185Z,37.86
2019-04-27T14:18:11.395Z,37.07
2019-04-27T14:20:41.305Z,40.92
2019-04-27T14:23:34.850Z,42.42
2019-04-27T14:26:03.956Z,42.57
2019-04-27T14:28:34.064Z,40.93
2019-04-27T14:31:04.244Z,39.13
2019-04-27T14:33:34.103Z,38.89
2019-04-27T14:36:04.010Z,38.21
2019-04-27T14:38:33.923Z,38.42
2019-04-27T14:41:03.802Z,38.83
2019-04-27T14:43:33.878Z,39.19
2019-04-27T14:46:03.836Z,39.63
2019-04-27T14:48:33.693Z,40.80
2019-04-27T14:51:03.554Z,39.79
2019-04-27T14:53:33.717Z,40.32
2019-04-27T14:56:03.851Z,39.88
2019-04-27T14:58:33.720Z,40.38
2019-04-27T15:01:03.815Z,40.04
2019-04-27T15:03:33.701Z,39.82
2019-04-27T15:06:03.810Z,39.30
2019-04-27T15:08:34.177Z,38.91
2019-04-27T15:11:10.192Z,38.87
2019-04-27T15:13:37.914Z,39.50
2019-04-27T15:16:08.388Z,38.80
2019-04-27T15:18:43.761Z,39.70
2019-04-27T15:21:13.871Z,39.56
2019-04-27T15:23:43.740Z,40.02
2019-04-27T15:26:15.440Z,40.61
2019-04-27T15:28:49.444Z,43.46
2019-04-27T15:31:29.536Z,49.25
2019-04-27T15:34:13.098Z,56.32
2019-04-27T15:37:11.113Z,60.98
2019-04-27T15:39:58.278Z,65.28
2019-04-27T15:42:41.546Z,68.46
2019-04-27T15:45:08.971Z,70.11
2019-04-27T15:47:42.464Z,71.28
2019-04-27T15:50:11.753Z,71.49
2019-04-27T15:52:41.616Z,72.42
2019-04-27T15:55:31.162Z,73.86
2019-04-27T15:57:47.032Z,74.51
2019-04-27T16:00:24.054Z,76.66
2019-04-27T16:02:53.895Z,78.33
2019-04-27T16:05:28.672Z,77.57
2019-04-27T16:07:59.167Z,77.54
2019-04-27T16:10:28.452Z,76.70
2019-04-27T16:13:06.552Z,76.83
2019-04-27T16:15:30.146Z,75.38
2019-04-27T16:18:00.510Z,73.09
2019-04-27T16:20:33.852Z,74.03
2019-04-27T16:23:03.390Z,73.18
2019-04-27T16:25:46.016Z,73.56
2019-04-27T16:28:09.582Z,73.30
2019-04-27T16:30:39.150Z,72.80
2019-04-27T16:33:09.484Z,71.04
2019-04-27T16:35:39.358Z,69.84
2019-04-27T16:38:34.557Z,70.11
2019-04-27T16:41:04.252Z,70.11
2019-04-27T16:43:34.155Z,71.31
2019-04-27T16:46:05.366Z,70.97
2019-04-27T16:48:36.324Z,69.79
2019-04-27T16:51:06.382Z,64.19
2019-04-27T16:53:39.751Z,62.05
2019-04-27T16:56:14.431Z,62.55
2019-04-27T16:58:40.362Z,62.66
2019-04-27T17:01:28.460Z,61.63
2019-04-27T17:03:59.346Z,62.61
2019-04-27T17:06:29.823Z,64.54
2019-04-27T17:09:05.542Z,64.78
2019-04-27T17:11:31.338Z,64.71
2019-04-27T17:14:08.799Z,65.35
2019-04-27T17:16:54.371Z,65.76
2019-04-27T17:19:30.732Z,66.01
2019-04-27T17:22:01.012Z,66.43
2019-04-27T17:24:42.287Z,69.08
2019-04-27T17:27:11.564Z,68.38
2019-04-27T17:29:42.048Z,68.64
2019-04-27T17:32:30.370Z,69.48
2019-04-27T17:35:02.084Z,68.69
2019-04-27T17:37:33.631Z,67.79
2019-04-27T17:40:01.258Z,68.31
2019-04-27T17:42:31.129Z,65.79
2019-04-27T17:45:01.202Z,66.18
2019-04-27T17:47:31.154Z,66.54
2019-04-27T17:50:01.261Z,67.57
2019-04-27T17:52:31.222Z,67.77
2019-04-27T17:55:01.336Z,67.86
2019-04-27T17:57:31.508Z,69.19
2019-04-27T18:00:03.366Z,70.96
2019-04-27T18:02:33.921Z,70.79
2019-04-27T18:05:05.227Z,71.00
2019-04-27T18:07:42.637Z,72.69
2019-04-27T18:10:08.731Z,73.43
2019-04-27T18:12:38.713Z,73.51
2019-04-27T18:15:10.443Z,74.22
2019-04-27T18:17:48.200Z,75.40
2019-04-27T18:20:15.919Z,76.18
2019-04-27T18:22:49.446Z,76.44
2019-04-27T18:25:19.268Z,76.60
2019-04-27T18:28:07.960Z,77.34
2019-04-27T18:31:00.346Z,77.84
2019-04-27T18:33:32.579Z,79.58
2019-04-27T18:36:05.544Z,80.03
2019-04-27T18:38:35.597Z,80.28
2019-04-27T18:41:08.095Z,80.75
2019-04-27T18:43:39.596Z,80.90
2019-04-27T18:46:09.795Z,80.82
2019-04-27T18:49:01.744Z,80.54
2019-04-27T18:51:40.979Z,80.97
2019-04-27T18:54:11.131Z,81.67
2019-04-27T18:56:41.867Z,80.93
2019-04-27T18:59:11.756Z,81.33
2019-04-27T19:01:41.935Z,81.77
2019-04-27T19:04:11.803Z,83.49
2019-04-27T19:06:41.672Z,85.00
2019-04-27T19:09:11.669Z,81.60
2019-04-27T19:11:53.431Z,80.16
2019-04-27T19:14:13.120Z,80.30
2019-04-27T19:16:43.393Z,80.12
2019-04-27T19:19:13.348Z,80.59
2019-04-27T19:21:43.710Z,80.85
2019-04-27T19:24:13.821Z,81.02
2019-04-27T19:26:51.463Z,82.17
2019-04-27T19:29:31.138Z,82.28
2019-04-27T19:32:02.457Z,82.20
2019-04-27T19:34:32.346Z,82.84
2019-04-27T19:37:02.206Z,83.06
2019-04-27T19:39:32.191Z,82.97
2019-04-27T19:42:03.802Z,84.08
2019-04-27T19:44:34.355Z,83.51
2019-04-27T19:47:05.835Z,83.88
2019-04-27T19:49:38.701Z,83.54
2019-04-27T19:52:08.646Z,82.72
2019-04-27T19:54:39.829Z,82.19
2019-04-27T19:57:10.231Z,83.11
2019-04-27T19:59:46.510Z,83.43
2019-04-27T20:02:20.330Z,83.52
2019-04-27T20:05:00.565Z,83.88
2019-04-27T20:07:30.594Z,82.96
2019-04-27T20:10:01.970Z,83.16
2019-04-27T20:12:31.814Z,83.76
2019-04-27T20:15:02.383Z,84.64
2019-04-27T20:17:33.573Z,84.83
2019-04-27T20:20:04.832Z,84.46
2019-04-27T20:22:35.095Z,85.27
2019-04-27T20:25:05.964Z,85.54
2019-04-27T20:27:46.262Z,84.95
2019-04-27T20:30:11.124Z,84.69
2019-04-27T20:32:41.413Z,85.60
2019-04-27T20:35:11.857Z,85.38
2019-04-27T20:37:42.155Z,85.52
2019-04-27T20:40:12.538Z,85.45
2019-04-27T20:42:42.436Z,85.81
2019-04-27T20:45:12.747Z,86.16
2019-04-27T20:47:42.640Z,85.91
2019-04-27T20:50:12.748Z,85.59
2019-04-27T20:52:53.986Z,85.59
2019-04-27T20:55:24.802Z,85.04
2019-04-27T20:58:01.591Z,85.42
2019-04-27T21:00:26.574Z,85.43
2019-04-27T21:03:04.125Z,84.48
2019-04-27T21:05:53.216Z,84.78
2019-04-27T21:08:23.724Z,84.77
2019-04-27T21:10:53.627Z,85.08
2019-04-27T21:13:23.514Z,85.98
2019-04-27T21:15:53.381Z,85.75
2019-04-27T21:18:23.228Z,87.04
2019-04-27T21:20:53.082Z,87.37
2019-04-27T21:23:23.235Z,86.77
2019-04-27T21:25:53.660Z,87.29
2019-04-27T21:28:24.358Z,88.15
2019-04-27T21:30:54.271Z,87.82
2019-04-27T21:33:24.431Z,88.03
2019-04-27T21:35:54.347Z,88.48
2019-04-27T21:38:24.577Z,88.36
2019-04-27T21:40:54.474Z,87.89
2019-04-27T21:43:24.342Z,87.78
2019-04-27T21:45:54.808Z,87.44
2019-04-27T21:48:24.967Z,87.38
2019-04-27T21:50:55.809Z,87.42
2019-04-27T21:53:43.598Z,87.57
2019-04-27T21:56:13.644Z,87.63
2019-04-27T21:58:43.509Z,87.57
2019-04-27T22:01:41.693Z,87.86
2019-04-27T22:04:11.555Z,87.73
2019-04-27T22:06:42.526Z,87.52
2019-04-27T22:09:14.351Z,87.32
2019-04-27T22:11:44.666Z,87.19
2019-04-27T22:14:14.901Z,86.72
2019-04-27T22:16:44.995Z,86.40
2019-04-27T22:19:15.134Z,86.00
2019-04-27T22:21:45.629Z,86.04
2019-04-27T22:24:29.859Z,86.81
2019-04-27T22:27:00.321Z,87.22
2019-04-27T22:29:31.982Z,87.09
2019-04-27T22:32:01.819Z,86.44
2019-04-27T22:34:31.746Z,86.46
2019-04-27T22:37:02.717Z,87.03
2019-04-27T22:39:45.030Z,87.17
2019-04-27T22:42:38.069Z,87.94
2019-04-27T22:45:14.291Z,87.40
2019-04-27T22:47:44.827Z,86.88
2019-04-27T22:50:14.868Z,86.67
2019-04-27T22:52:45.066Z,86.70
2019-04-27T22:55:14.932Z,86.99
2019-04-27T22:57:53.121Z,87.44
2019-04-27T23:00:43.207Z,87.44
2019-04-27T23:03:16.934Z,87.64
2019-04-27T23:05:47.064Z,87.80
2019-04-27T23:08:17.503Z,87.70
2019-04-27T23:10:47.362Z,87.42
2019-04-27T23:13:17.544Z,87.41
2019-04-27T23:15:51.269Z,87.69
2019-04-27T23:18:22.649Z,88.23
2019-04-27T23:20:53.099Z,88.72
2019-04-27T23:23:22.960Z,88.83
2019-04-27T23:25:53.120Z,88.46
2019-04-27T23:28:23.534Z,88.57
2019-04-27T23:31:05.325Z,88.10
2019-04-27T23:33:36.003Z,88.09
2019-04-27T23:36:06.032Z,88.07
2019-04-27T23:38:35.913Z,88.53
2019-04-27T23:41:05.842Z,88.69
2019-04-27T23:43:36.304Z,88.69
2019-04-27T23:46:06.574Z,88.55
2019-04-27T23:48:36.800Z,89.00
2019-04-27T23:51:16.602Z,88.80
2019-04-27T23:53:46.765Z,88.34
2019-04-27T23:56:17.589Z,88.11
2019-04-27T23:58:47.736Z,88.38
